Time;durP1;ratioP1;P1;durP2;ratioP2;P2;SDS_P1;SDS_P2;PMS_P1;PMS_P2;Temp;Humidity;BMP_temperature;BMP_pressure;BME280_temperature;BME280_humidity;BME280_pressure;Samples;Min_cycle;Max_cycle;Signal;HPM_P1;HPM_P2
2021/12/11 00:01:44;;;;;;;149.35;46.33;;;;;;;-145.45;100.00;62759.84;5231302;28;20057;-86
2021/12/11 00:04:21;;;;;;;181.23;48.70;;;;;;;-145.45;100.00;62759.84;5259728;28;20141;-87
2021/12/11 00:06:54;;;;;;;149.32;49.03;;;;;;;-145.45;100.00;62759.84;5244156;28;20056;-87
2021/12/11 00:09:32;;;;;;;217.77;48.13;;;;;;;-145.45;100.00;62759.84;5243207;28;20099;-87
2021/12/11 00:12:16;;;;;;;180.52;47.28;;;;;;;-145.45;100.00;62759.84;5244385;28;20022;-87
2021/12/11 00:15:14;;;;;;;179.77;47.10;;;;;;;-145.45;100.00;62759.84;5231966;28;20034;-87
2021/12/11 00:17:56;;;;;;;207.65;47.58;;;;;;;-145.45;100.00;62759.84;5286923;28;20053;-87
2021/12/11 00:20:34;;;;;;;171.40;47.35;;;;;;;-145.45;100.00;62759.84;5270376;28;20085;-87
2021/12/11 00:23:09;;;;;;;190.63;46.53;;;;;;;-145.45;100.00;62759.84;5271111;28;20064;-87
2021/12/11 00:25:46;;;;;;;160.02;46.25;;;;;;;-145.45;100.00;62759.84;5273365;28;20053;-87
2021/12/11 00:28:20;;;;;;;172.68;46.38;;;;;;;-145.45;100.00;62759.84;5286924;28;20030;-87
2021/12/11 00:30:52;;;;;;;202.10;47.30;;;;;;;-145.45;100.00;62759.84;5268690;28;20029;-87
2021/12/11 00:33:27;;;;;;;153.75;45.72;;;;;;;-145.45;100.00;62759.84;5265349;28;20026;-87
2021/12/11 00:35:59;;;;;;;189.60;47.38;;;;;;;-145.45;100.00;62759.84;5263139;28;20032;-87
2021/12/11 00:38:34;;;;;;;158.32;45.38;;;;;;;-145.45;100.00;62759.84;5260756;28;20013;-87
2021/12/11 00:41:12;;;;;;;215.15;50.88;;;;;;;-145.45;100.00;62759.84;5245568;28;20089;-87
2021/12/11 00:43:46;;;;;;;147.02;48.33;;;;;;;-145.45;100.00;62759.84;5262897;28;20048;-87
2021/12/11 00:46:28;;;;;;;237.98;54.20;;;;;;;-145.45;100.00;62759.84;5263694;28;20139;-87
2021/12/11 00:49:18;;;;;;;247.45;51.55;;;;;;;-145.45;100.00;62759.84;5262439;28;20049;-88
2021/12/11 00:51:53;;;;;;;161.68;46.30;;;;;;;-145.45;100.00;62759.84;5249039;28;20049;-88
2021/12/11 00:54:39;;;;;;;168.10;48.38;;;;;;;-145.45;100.00;62759.84;5254767;28;20022;-88
2021/12/11 00:57:16;;;;;;;201.27;51.42;;;;;;;-145.45;100.00;62759.84;5249417;28;20061;-87
2021/12/11 01:00:21;;;;;;;241.82;54.90;;;;;;;-145.45;100.00;62759.84;5248265;28;20033;-87
2021/12/11 01:02:57;;;;;;;220.35;50.72;;;;;;;-145.45;100.00;62759.84;5203330;28;20037;-87
2021/12/11 01:05:35;;;;;;;168.98;47.08;;;;;;;-145.45;100.00;62759.84;5250637;28;20474;-87
2021/12/11 01:08:39;;;;;;;213.93;49.50;;;;;;;-145.45;100.00;62759.84;5261243;28;20025;-87
2021/12/11 01:11:49;;;;;;;213.30;47.03;;;;;;;-145.45;100.00;62759.84;5272057;28;20034;-87
2021/12/11 01:14:35;;;;;;;175.77;46.20;;;;;;;-145.45;100.00;62759.84;5263571;28;20021;-87
2021/12/11 01:17:37;;;;;;;202.68;45.92;;;;;;;-145.45;100.00;62759.84;5241994;28;20069;-87
2021/12/11 01:20:21;;;;;;;212.23;49.05;;;;;;;-145.45;100.00;62759.84;5261272;28;20037;-86
2021/12/11 01:23:26;;;;;;;172.60;46.20;;;;;;;-145.45;100.00;62759.84;5242816;28;20763;-87
2021/12/11 01:26:09;;;;;;;205.52;47.50;;;;;;;-145.45;100.00;62759.84;5242335;28;20066;-86
2021/12/11 01:28:44;;;;;;;206.13;52.83;;;;;;;-145.45;100.00;62759.84;5263061;28;20037;-86
2021/12/11 01:31:21;;;;;;;202.20;50.22;;;;;;;-145.45;100.00;62759.84;5248088;28;20021;-86
2021/12/11 01:33:57;;;;;;;210.90;51.58;;;;;;;-145.45;100.00;62759.84;5248568;28;20030;-87
2021/12/11 01:36:29;;;;;;;268.40;50.97;;;;;;;-145.45;100.00;62759.84;5264906;28;20021;-87
2021/12/11 01:39:09;;;;;;;203.57;48.00;;;;;;;-145.45;100.00;62759.84;5264617;28;20033;-87
2021/12/11 01:41:41;;;;;;;235.80;45.22;;;;;;;-145.45;100.00;62759.84;5241702;28;20037;-86
2021/12/11 01:44:17;;;;;;;214.75;46.75;;;;;;;-145.45;100.00;62759.84;5249229;28;20068;-86
2021/12/11 01:46:57;;;;;;;222.48;47.75;;;;;;;-145.45;100.00;62759.84;5251685;28;20090;-86
2021/12/11 01:49:30;;;;;;;250.38;47.22;;;;;;;-145.45;100.00;62759.84;5250704;28;20021;-87
2021/12/11 01:52:11;;;;;;;192.90;44.42;;;;;;;-145.45;100.00;62759.84;5246989;28;20021;-87
2021/12/11 01:54:55;;;;;;;250.43;44.95;;;;;;;-145.45;100.00;62759.84;5228233;28;20415;-87
2021/12/11 01:57:31;;;;;;;213.27;43.78;;;;;;;-145.45;100.00;62759.84;5245336;28;20037;-87
2021/12/11 02:00:34;;;;;;;265.33;47.47;;;;;;;-145.45;100.00;62759.84;5246820;28;20045;-87
2021/12/11 02:03:10;;;;;;;182.73;40.10;;;;;;;-145.45;100.00;62759.84;5250109;28;20757;-87
2021/12/11 02:05:43;;;;;;;182.15;42.63;;;;;;;-145.45;100.00;62759.84;5245994;28;20029;-87
2021/12/11 02:08:21;;;;;;;194.57;43.67;;;;;;;-145.45;100.00;62759.84;5259193;28;20053;-87
2021/12/11 02:10:57;;;;;;;203.00;46.25;;;;;;;-145.45;100.00;62759.84;5252999;28;20030;-87
2021/12/11 02:13:39;;;;;;;208.65;46.55;;;;;;;-145.45;100.00;62759.84;5263665;28;20527;-87
2021/12/11 02:16:22;;;;;;;204.90;49.08;;;;;;;-145.45;100.00;62759.84;5253835;28;20083;-86
2021/12/11 02:19:14;;;;;;;218.95;47.67;;;;;;;-145.45;100.00;62759.84;5260762;28;20045;-86
2021/12/11 02:22:00;;;;;;;283.33;52.97;;;;;;;-145.45;100.00;62759.84;5246439;28;20053;-86
2021/12/11 02:24:52;;;;;;;303.52;50.38;;;;;;;-145.45;100.00;62759.84;5245948;28;20549;-86
2021/12/11 02:27:32;;;;;;;287.90;49.35;;;;;;;-145.45;100.00;62759.84;5238081;28;20041;-86
2021/12/11 02:30:36;;;;;;;252.95;50.42;;;;;;;-145.45;100.00;62759.84;5238860;28;20032;-86
2021/12/11 02:33:26;;;;;;;231.43;46.78;;;;;;;-145.45;100.00;62759.84;5175174;28;20053;-87
2021/12/11 02:36:11;;;;;;;216.18;47.78;;;;;;;-145.45;100.00;62759.84;5273179;28;20033;-86
2021/12/11 02:39:07;;;;;;;222.68;47.65;;;;;;;-145.45;100.00;62759.84;5251838;28;20022;-87
2021/12/11 02:41:59;;;;;;;199.18;48.25;;;;;;;-145.45;100.00;62759.84;5262801;28;20030;-87
2021/12/11 02:44:48;;;;;;;210.00;46.78;;;;;;;-145.45;100.00;62759.84;5263173;28;20037;-87
2021/12/11 02:47:49;;;;;;;193.02;45.03;;;;;;;-145.45;100.00;62759.84;5262071;28;20026;-87
2021/12/11 02:50:47;;;;;;;181.35;42.95;;;;;;;-145.45;100.00;62759.84;5231949;28;20042;-87
2021/12/11 02:53:55;;;;;;;247.30;46.30;;;;;;;-145.45;100.00;62759.84;5261786;28;20021;-87
2021/12/11 02:56:31;;;;;;;176.32;44.28;;;;;;;-145.45;100.00;62759.84;5249182;28;20033;-87
2021/12/11 02:59:15;;;;;;;196.93;46.05;;;;;;;-145.45;100.00;62759.84;5252757;28;20565;-87
2021/12/11 03:02:11;;;;;;;249.38;48.55;;;;;;;-145.45;100.00;62759.84;5274058;28;20466;-87
2021/12/11 03:04:54;;;;;;;200.13;45.83;;;;;;;-145.45;100.00;62759.84;5250480;28;20462;-87
2021/12/11 03:07:37;;;;;;;178.07;45.92;;;;;;;-145.45;100.00;62759.84;5254486;28;20478;-86
2021/12/11 03:10:12;;;;;;;185.25;46.67;;;;;;;-145.45;100.00;62759.84;5236796;28;20041;-87
2021/12/11 03:12:52;;;;;;;168.90;40.17;;;;;;;-145.45;100.00;62759.84;5258530;28;20040;-86
2021/12/11 03:15:52;;;;;;;198.95;46.47;;;;;;;-145.45;100.00;62759.84;5269519;28;20021;-87
2021/12/11 03:18:25;;;;;;;210.38;49.58;;;;;;;-145.45;100.00;62759.84;5241285;28;20037;-86
2021/12/11 03:21:18;;;;;;;201.77;46.90;;;;;;;-145.45;100.00;62759.84;5285588;28;20018;-87
2021/12/11 03:23:52;;;;;;;193.13;48.28;;;;;;;-145.45;100.00;62759.84;5280213;28;20037;-86
2021/12/11 03:26:25;;;;;;;198.15;48.00;;;;;;;-145.45;100.00;62759.84;5259966;28;20032;-87
2021/12/11 03:29:10;;;;;;;198.88;51.90;;;;;;;-145.45;100.00;62759.84;5266591;28;20099;-86
2021/12/11 03:31:44;;;;;;;182.95;49.47;;;;;;;-145.45;100.00;62759.84;5245315;28;20030;-85
2021/12/11 03:34:42;;;;;;;;;;;;;;;;;;;;;
2021/12/11 03:37:19;;;;;;;176.90;45.33;;;;;;;-145.45;100.00;62759.84;5262412;28;40066;-87
2021/12/11 03:39:54;;;;;;;;;;;;;;;-145.45;100.00;62759.84;5264651;28;20083;-87
2021/12/11 03:42:32;;;;;;;193.85;48.30;;;;;;;-145.45;100.00;62759.84;5249031;28;20436;-86
2021/12/11 03:45:19;;;;;;;201.20;48.97;;;;;;;-145.45;100.00;62759.84;5263363;28;20097;-87
2021/12/11 03:48:18;;;;;;;235.25;51.03;;;;;;;-145.45;100.00;62759.84;5247390;28;20018;-87
2021/12/11 03:50:53;;;;;;;199.65;50.30;;;;;;;-145.45;100.00;62759.84;5268523;28;20107;-87
2021/12/11 03:53:28;;;;;;;189.43;51.70;;;;;;;-145.45;100.00;62759.84;5251125;28;20037;-87
2021/12/11 03:56:17;;;;;;;215.13;50.63;;;;;;;-145.45;100.00;62759.84;5262090;28;20068;-86
2021/12/11 03:58:50;;;;;;;193.93;51.35;;;;;;;-145.45;100.00;62759.84;5245027;28;20038;-87
2021/12/11 04:01:31;;;;;;;198.68;50.03;;;;;;;-145.45;100.00;62759.84;5256989;28;20113;-86
2021/12/11 04:04:41;;;;;;;198.15;53.53;;;;;;;-145.45;100.00;62759.84;5251915;28;20127;-86
2021/12/11 04:07:19;;;;;;;196.38;49.97;;;;;;;-145.45;100.00;62759.84;5181112;28;20093;-86
2021/12/11 04:09:51;;;;;;;197.05;49.08;;;;;;;-145.45;100.00;62759.84;5160339;28;20456;-86
2021/12/11 04:12:30;;;;;;;191.85;48.35;;;;;;;-145.45;100.00;62759.84;5170790;28;20022;-87
2021/12/11 04:15:16;;;;;;;223.85;52.15;;;;;;;-145.45;100.00;62759.84;5195307;28;20039;-87
2021/12/11 04:17:54;;;;;;;201.63;51.75;;;;;;;-145.45;100.00;62759.84;5258700;28;20033;-87
2021/12/11 04:20:31;;;;;;;183.32;49.88;;;;;;;-145.45;100.00;62759.84;5245804;28;20482;-86
2021/12/11 04:23:11;;;;;;;;;;;;;;;-145.45;100.00;62759.84;5228638;28;20025;-87
2021/12/11 04:25:48;;;;;;;184.45;47.88;;;;;;;-145.45;100.00;62759.84;5238669;28;20337;-87
2021/12/11 04:28:21;;;;;;;;;;;;;;;-145.45;100.00;62759.84;5243332;28;20441;-87
2021/12/11 04:31:01;;;;;;;184.52;49.35;;;;;;;-145.45;100.00;62759.84;5261886;28;20010;-87
2021/12/11 04:33:46;;;;;;;203.82;51.30;;;;;;;-145.45;100.00;62759.84;5245775;28;20175;-87
2021/12/11 04:36:24;;;;;;;175.48;48.50;;;;;;;-145.45;100.00;62759.84;5259258;28;20544;-87
2021/12/11 04:39:08;;;;;;;200.82;52.90;;;;;;;-145.45;100.00;62759.84;5255206;28;20056;-88
2021/12/11 04:41:54;;;;;;;190.93;51.33;;;;;;;-145.45;100.00;62759.84;5263939;28;20519;-88
2021/12/11 04:44:39;;;;;;;163.90;48.80;;;;;;;-145.45;100.00;62759.84;5240020;28;20056;-88
2021/12/11 04:47:38;;;;;;;170.73;47.17;;;;;;;-145.45;100.00;62759.84;5256100;28;20033;-87
2021/12/11 04:50:20;;;;;;;227.30;49.22;;;;;;;-145.45;100.00;62759.84;5240758;28;20470;-88
2021/12/11 04:53:36;;;;;;;149.50;44.80;;;;;;;-145.45;100.00;62759.84;5250892;28;20060;-87
2021/12/11 04:59:20;;;;;;;183.23;47.53;;;;;;;-145.45;100.00;62759.84;5240444;28;20093;-87
2021/12/11 05:02:15;;;;;;;204.60;50.08;;;;;;;-145.45;100.00;62759.84;5267078;28;20100;-88
2021/12/11 05:05:22;;;;;;;158.90;42.53;;;;;;;-145.45;100.00;62759.84;5233102;28;20072;-87
2021/12/11 05:13:25;;;;;;;164.60;44.03;;;;;;;-145.45;100.00;62759.84;5260464;28;20033;-87
2021/12/11 05:16:02;;;;;;;161.57;45.80;;;;;;;-145.45;100.00;62759.84;5260625;28;20033;-86
2021/12/11 05:18:46;;;;;;;155.20;46.17;;;;;;;-145.45;100.00;62759.84;5241869;28;20045;-86
2021/12/11 05:21:20;;;;;;;153.38;43.80;;;;;;;-145.45;100.00;62759.84;5242587;28;21075;-86
2021/12/11 05:24:17;;;;;;;157.50;46.60;;;;;;;-145.45;100.00;62759.84;5241706;28;20052;-87
2021/12/11 05:27:03;;;;;;;180.98;47.63;;;;;;;-145.45;100.00;62759.84;5239586;28;20045;-86
2021/12/11 05:29:46;;;;;;;180.65;46.65;;;;;;;-145.45;100.00;62759.84;5240927;28;20040;-86
2021/12/11 05:32:32;;;;;;;163.48;47.47;;;;;;;-145.45;100.00;62759.84;5238625;28;20041;-87
2021/12/11 05:35:05;;;;;;;176.85;50.17;;;;;;;-145.45;100.00;62759.84;5260897;28;20040;-86
2021/12/11 05:37:46;;;;;;;171.27;49.90;;;;;;;-145.45;100.00;62759.84;5243177;28;20025;-86
2021/12/11 05:40:20;;;;;;;144.80;44.10;;;;;;;-145.45;100.00;62759.84;5242340;28;20063;-86
2021/12/11 05:42:52;;;;;;;160.43;48.58;;;;;;;-145.45;100.00;62759.84;5242620;28;20060;-86
2021/12/11 05:45:24;;;;;;;193.23;49.40;;;;;;;-145.45;100.00;62759.84;5261036;28;20444;-86
2021/12/11 05:48:03;;;;;;;156.60;47.60;;;;;;;-145.45;100.00;62759.84;5242868;28;20084;-86
2021/12/11 05:50:49;;;;;;;152.00;47.72;;;;;;;-145.45;100.00;62759.84;5241333;28;20029;-86
2021/12/11 05:53:30;;;;;;;157.40;49.15;;;;;;;-145.45;100.00;62759.84;5259907;28;20072;-86
2021/12/11 05:56:10;;;;;;;162.98;49.30;;;;;;;-145.45;100.00;62759.84;5259128;28;20025;-87
2021/12/11 06:01:30;;;;;;;174.77;50.40;;;;;;;-145.45;100.00;62759.84;5258633;28;20029;-86
2021/12/11 06:04:10;;;;;;;152.07;47.38;;;;;;;-145.45;100.00;62759.84;5253492;28;20046;-88
2021/12/11 06:06:46;;;;;;;138.82;46.33;;;;;;;-145.45;100.00;62759.84;5239107;28;20026;-88
2021/12/11 06:09:20;;;;;;;158.50;50.92;;;;;;;-145.45;100.00;62759.84;5239626;28;20417;-88
2021/12/11 06:12:10;;;;;;;153.32;49.72;;;;;;;-145.45;100.00;62759.84;5244455;28;20022;-87
2021/12/11 06:14:53;;;;;;;156.43;52.72;;;;;;;-145.45;100.00;62759.84;5230834;28;20026;-87
2021/12/11 06:17:27;;;;;;;144.00;45.10;;;;;;;-145.45;100.00;62759.84;5239478;28;20018;-86
2021/12/11 06:20:00;;;;;;;153.52;49.10;;;;;;;-145.45;100.00;62759.84;5252756;28;20006;-86
2021/12/11 06:22:37;;;;;;;177.77;60.85;;;;;;;-145.45;100.00;62759.84;5243695;28;20172;-87
2021/12/11 06:25:31;;;;;;;165.38;52.22;;;;;;;-145.45;100.00;62759.84;5260781;28;20097;-87
2021/12/11 06:28:10;;;;;;;190.93;56.22;;;;;;;-145.45;100.00;62759.84;5227716;28;20395;-88
2021/12/11 06:30:42;;;;;;;171.40;53.00;;;;;;;-145.45;100.00;62759.84;5256458;28;20022;-88
2021/12/11 06:33:26;;;;;;;187.50;56.20;;;;;;;-145.45;100.00;62759.84;5243290;28;20034;-89
2021/12/11 06:36:14;;;;;;;187.27;55.58;;;;;;;-145.45;100.00;62759.84;5224805;28;20048;-89
2021/12/11 06:38:50;;;;;;;195.95;57.67;;;;;;;-145.45;100.00;62759.84;5234506;28;20125;-88
2021/12/11 06:41:40;;;;;;;252.60;59.10;;;;;;;-145.45;100.00;62759.84;5236971;28;20022;-89
2021/12/11 06:44:19;;;;;;;217.18;61.42;;;;;;;-145.45;100.00;62759.84;5213540;28;20042;-89
2021/12/11 06:46:54;;;;;;;213.80;61.10;;;;;;;-145.45;100.00;62759.84;5255633;28;20049;-88
2021/12/11 06:49:28;;;;;;;220.85;59.88;;;;;;;-145.45;100.00;62759.84;5258548;28;20025;-88
2021/12/11 06:52:19;;;;;;;213.77;61.50;;;;;;;-145.45;100.00;62759.84;5245794;28;20482;-87
2021/12/11 06:54:53;;;;;;;231.25;64.97;;;;;;;-145.45;100.00;62759.84;5263526;28;20086;-88
2021/12/11 06:57:29;;;;;;;206.18;68.03;;;;;;;-145.45;100.00;62759.84;5230827;28;20061;-88
2021/12/11 07:00:07;;;;;;;213.30;70.22;;;;;;;-145.45;100.00;62759.84;5225747;28;20038;-88
2021/12/11 07:02:38;;;;;;;206.80;66.05;;;;;;;-145.45;100.00;62759.84;5224483;28;20025;-87
2021/12/11 07:05:10;;;;;;;221.30;68.30;;;;;;;-145.45;100.00;62759.84;5240459;28;20042;-86
2021/12/11 07:07:43;;;;;;;194.85;63.65;;;;;;;-145.45;100.00;62759.84;5226427;28;20025;-86
2021/12/11 07:10:19;;;;;;;184.48;62.78;;;;;;;-145.45;100.00;62759.84;5227251;28;20094;-86
2021/12/11 07:12:51;;;;;;;223.23;66.22;;;;;;;-145.45;100.00;62759.84;5231918;28;20054;-88
2021/12/11 07:15:22;;;;;;;189.57;68.30;;;;;;;-145.45;100.00;62759.84;5250084;28;20061;-87
2021/12/11 07:17:54;;;;;;;175.32;69.13;;;;;;;-145.45;100.00;62759.84;5231087;28;20029;-88
2021/12/11 07:20:29;;;;;;;190.43;65.30;;;;;;;-145.45;100.00;62759.84;5229452;28;20026;-88
2021/12/11 07:23:08;;;;;;;174.10;72.50;;;;;;;-145.45;100.00;62759.84;5224141;28;20109;-89
2021/12/11 07:25:47;;;;;;;153.05;66.75;;;;;;;-145.45;100.00;62759.84;5243064;28;20112;-89
2021/12/11 07:28:21;;;;;;;158.43;61.03;;;;;;;-145.45;100.00;62759.84;5243734;28;20026;-88
2021/12/11 07:30:59;;;;;;;151.00;59.30;;;;;;;-145.45;100.00;62759.84;5242920;28;20132;-88
2021/12/11 07:33:47;;;;;;;134.25;62.55;;;;;;;-145.45;100.00;62759.84;5224459;28;20030;-89
2021/12/11 07:36:36;;;;;;;144.95;55.60;;;;;;;-145.45;100.00;62759.84;5243444;28;20041;-88
2021/12/11 07:39:13;;;;;;;128.48;57.10;;;;;;;-145.45;100.00;62759.84;5205007;28;20424;-89
2021/12/11 07:41:52;;;;;;;133.95;54.63;;;;;;;-145.45;100.00;62759.84;5230758;28;20026;-91
2021/12/11 07:44:30;;;;;;;117.18;54.38;;;;;;;-145.45;100.00;62759.84;5243293;28;20040;-89
2021/12/11 07:47:04;;;;;;;125.10;53.72;;;;;;;-145.45;100.00;62759.84;5242281;28;20391;-87
2021/12/11 07:49:42;;;;;;;110.55;49.15;;;;;;;-145.45;100.00;62759.84;5223938;28;20033;-87
2021/12/11 07:52:14;;;;;;;106.20;47.08;;;;;;;-145.45;100.00;62759.84;5232989;28;20038;-88
2021/12/11 07:54:48;;;;;;;117.97;46.38;;;;;;;-145.45;100.00;62759.84;5255636;28;20029;-88
2021/12/11 07:57:19;;;;;;;90.97;39.80;;;;;;;-145.45;100.00;62759.84;5256346;28;20395;-89
2021/12/11 07:59:58;;;;;;;84.82;40.08;;;;;;;-145.45;100.00;62759.84;5248419;28;20024;-88
2021/12/11 08:02:29;;;;;;;83.93;38.92;;;;;;;-145.45;100.00;62759.84;5243834;28;20461;-88
2021/12/11 08:05:13;;;;;;;74.95;37.95;;;;;;;-145.45;100.00;62759.84;5237475;28;20064;-88
2021/12/11 08:07:47;;;;;;;78.53;34.83;;;;;;;-145.45;100.00;62759.84;5222628;28;20030;-86
2021/12/11 08:10:54;;;;;;;71.10;31.70;;;;;;;-145.45;100.00;62759.84;5224746;28;20025;-87
2021/12/11 08:13:30;;;;;;;64.93;28.33;;;;;;;-145.45;100.00;62759.84;5222902;28;20080;-87
2021/12/11 08:16:08;;;;;;;69.45;29.35;;;;;;;-145.45;100.00;62759.84;5210445;28;20085;-86
2021/12/11 08:18:41;;;;;;;60.10;23.98;;;;;;;-145.45;100.00;62759.84;5222995;28;20434;-86
2021/12/11 08:21:14;;;;;;;57.88;23.55;;;;;;;-145.45;100.00;62759.84;5223705;28;20037;-84
2021/12/11 08:23:48;;;;;;;48.95;19.63;;;;;;;-145.45;100.00;62759.84;5241045;28;20037;-84
2021/12/11 08:26:41;;;;;;;57.97;22.50;;;;;;;-145.45;100.00;62759.84;5222863;28;20065;-85
2021/12/11 08:29:15;;;;;;;52.22;22.70;;;;;;;-145.45;100.00;62759.84;5222787;28;20240;-86
2021/12/11 08:31:59;;;;;;;59.35;20.25;;;;;;;-145.45;100.00;62759.84;5222935;28;20042;-85
2021/12/11 08:34:34;;;;;;;50.20;18.77;;;;;;;-145.45;100.00;62759.84;5222104;28;20085;-86
2021/12/11 08:37:16;;;;;;;51.90;18.25;;;;;;;-145.45;100.00;62759.84;5222582;28;20030;-85
2021/12/11 08:39:48;;;;;;;46.83;15.85;;;;;;;-145.45;100.00;62759.84;5223202;28;20499;-85
2021/12/11 08:42:23;;;;;;;34.53;10.10;;;;;;;-145.45;100.00;62759.84;5223007;28;20098;-86
2021/12/11 08:45:07;;;;;;;43.53;13.40;;;;;;;-145.45;100.00;62759.84;5239667;28;20040;-87
2021/12/11 08:47:46;;;;;;;30.10;10.57;;;;;;;-145.45;100.00;62759.84;5222262;28;20026;-87
2021/12/11 08:50:24;;;;;;;37.45;10.63;;;;;;;-145.45;100.00;62759.84;5220918;28;20046;-88
2021/12/11 08:52:59;;;;;;;30.52;10.88;;;;;;;-145.45;100.00;62759.84;5241578;28;20363;-87
2021/12/11 08:55:48;;;;;;;31.50;8.93;;;;;;;-145.45;100.00;62759.84;5223389;28;20014;-87
2021/12/11 08:58:41;;;;;;;30.42;8.60;;;;;;;-145.45;100.00;62759.84;5241227;28;20030;-87
2021/12/11 09:01:31;;;;;;;33.50;8.55;;;;;;;-145.45;100.00;62759.84;5217653;28;20072;-87
2021/12/11 09:04:31;;;;;;;24.25;9.05;;;;;;;-145.45;100.00;62759.84;5222892;28;20049;-87
2021/12/11 09:07:25;;;;;;;27.98;8.85;;;;;;;-145.45;100.00;62759.84;5249248;28;20029;-87
2021/12/11 09:10:16;;;;;;;28.63;8.27;;;;;;;-145.45;100.00;62759.84;5246991;28;20037;-87
2021/12/11 09:13:28;;;;;;;27.20;7.53;;;;;;;-145.45;100.00;62759.84;5267877;28;20034;-87
2021/12/11 09:16:21;;;;;;;23.05;7.50;;;;;;;-145.45;100.00;62759.84;5273703;28;20491;-86
2021/12/11 09:19:05;;;;;;;30.52;7.15;;;;;;;-145.45;100.00;62759.84;5283512;28;20053;-86
2021/12/11 09:21:57;;;;;;;24.67;6.65;;;;;;;-145.45;100.00;62759.84;5278726;28;20042;-85
2021/12/11 09:24:36;;;;;;;26.73;6.53;;;;;;;-145.45;100.00;62759.84;5285267;28;20041;-85
2021/12/11 09:27:25;;;;;;;33.15;7.95;;;;;;;-145.45;100.00;62759.84;5247849;28;20034;-85
2021/12/11 09:30:04;;;;;;;26.60;6.30;;;;;;;-145.45;100.00;62759.84;5267261;28;20036;-86
2021/12/11 09:32:42;;;;;;;32.22;7.22;;;;;;;-145.45;100.00;62759.84;5262238;28;20041;-87
2021/12/11 09:35:22;;;;;;;30.90;7.05;;;;;;;-145.45;100.00;62759.84;5244274;28;20025;-87
2021/12/11 09:38:00;;;;;;;26.73;6.40;;;;;;;-145.45;100.00;62759.84;5272521;28;20072;-86
2021/12/11 09:40:31;;;;;;;27.42;5.88;;;;;;;-145.45;100.00;62759.84;5261441;28;20022;-86
2021/12/11 09:43:03;;;;;;;40.10;6.10;;;;;;;-145.45;100.00;62759.84;5261829;28;20486;-87
2021/12/11 09:45:42;;;;;;;19.23;5.93;;;;;;;-145.45;100.00;62759.84;5262722;28;20264;-87
2021/12/11 09:48:17;;;;;;;26.20;5.35;;;;;;;-145.45;100.00;62759.84;5263823;28;20083;-87
2021/12/11 09:50:58;;;;;;;17.50;5.10;;;;;;;-145.45;100.00;62759.84;5253675;28;20496;-86
2021/12/11 09:53:38;;;;;;;14.65;4.95;;;;;;;-145.45;100.00;62759.84;5264076;28;20132;-86
2021/12/11 09:56:18;;;;;;;23.38;5.00;;;;;;;-145.45;100.00;62759.84;5261357;28;20120;-85
2021/12/11 09:58:50;;;;;;;22.92;5.15;;;;;;;-145.45;100.00;62759.84;5248988;28;20076;-87
2021/12/11 10:01:29;;;;;;;17.30;4.95;;;;;;;-145.45;100.00;62759.84;5245400;28;20474;-85
2021/12/11 10:04:10;;;;;;;16.77;4.57;;;;;;;-145.45;100.00;62759.84;5263450;28;20041;-86
2021/12/11 10:09:34;;;;;;;17.13;4.43;;;;;;;-145.45;100.00;62759.84;5285400;28;20029;-87
2021/12/11 10:12:08;;;;;;;11.50;3.88;;;;;;;-145.45;100.00;62759.84;5272962;28;20036;-87
2021/12/11 10:14:55;;;;;;;15.15;4.70;;;;;;;-145.45;100.00;62759.84;5247454;28;20133;-88
2021/12/11 10:17:37;;;;;;;15.70;4.47;;;;;;;-145.45;100.00;62759.84;5240247;28;20029;-89
2021/12/11 10:20:17;;;;;;;15.35;4.28;;;;;;;-145.45;100.00;62759.84;5253362;28;20098;-91
2021/12/11 10:22:50;;;;;;;18.23;4.30;;;;;;;-145.45;100.00;62759.84;5259391;28;20029;-91
2021/12/11 10:25:27;;;;;;;16.48;3.40;;;;;;;-145.45;100.00;62759.84;5265252;28;20022;-88
2021/12/11 10:28:01;;;;;;;14.55;3.65;;;;;;;-145.45;100.00;62759.84;5246793;28;20116;-88
2021/12/11 10:30:36;;;;;;;17.10;3.47;;;;;;;-145.45;100.00;62759.84;5231885;28;20120;-87
2021/12/11 10:33:08;;;;;;;17.50;4.25;;;;;;;-145.45;100.00;62759.84;5246453;28;20026;-87
2021/12/11 10:35:44;;;;;;;18.85;3.75;;;;;;;-145.45;100.00;62759.84;5246102;28;20447;-87
2021/12/11 10:38:17;;;;;;;17.03;4.17;;;;;;;-145.45;100.00;62759.84;5264469;28;20493;-88
2021/12/11 10:40:53;;;;;;;16.45;4.50;;;;;;;-145.45;100.00;62759.84;5242054;28;20036;-88
2021/12/11 10:43:35;;;;;;;19.80;4.50;;;;;;;-145.45;100.00;62759.84;5225695;28;20363;-88
2021/12/11 10:46:07;;;;;;;17.02;5.10;;;;;;;-145.45;100.00;62759.84;5242215;28;20074;-88
2021/12/11 10:48:42;;;;;;;15.75;4.55;;;;;;;-145.45;100.00;62759.84;5250136;28;20030;-87
2021/12/11 10:51:22;;;;;;;14.85;4.97;;;;;;;-145.45;100.00;62759.84;5245805;28;20414;-87
2021/12/11 10:53:54;;;;;;;15.73;4.95;;;;;;;-145.45;100.00;62759.84;5245035;28;20033;-87
2021/12/11 10:56:27;;;;;;;17.92;4.85;;;;;;;-145.45;100.00;62759.84;5246129;28;20493;-87
2021/12/11 10:59:09;;;;;;;16.92;4.65;;;;;;;-145.45;100.00;62759.84;5245102;28;20408;-88
2021/12/11 11:01:46;;;;;;;11.52;4.25;;;;;;;-145.45;100.00;62759.84;5247387;28;20071;-87
2021/12/11 11:04:23;;;;;;;13.88;3.90;;;;;;;-145.45;100.00;62759.84;5246435;28;20134;-87
2021/12/11 11:06:57;;;;;;;19.40;4.03;;;;;;;-145.45;100.00;62759.84;5227040;28;20049;-90
2021/12/11 11:09:29;;;;;;;16.55;3.88;;;;;;;-145.45;100.00;62759.84;5229162;28;20037;-88
2021/12/11 11:12:05;;;;;;;13.45;4.07;;;;;;;-145.45;100.00;62759.84;5230180;28;20033;-88
2021/12/11 11:14:37;;;;;;;12.30;3.28;;;;;;;-145.45;100.00;62759.84;5226782;28;20022;-89
2021/12/11 11:17:13;;;;;;;17.83;3.83;;;;;;;-145.45;100.00;62759.84;5226336;28;20036;-87
2021/12/11 11:19:50;;;;;;;10.95;3.35;;;;;;;-145.45;100.00;62759.84;5241660;28;20111;-88
2021/12/11 11:22:28;;;;;;;13.50;3.83;;;;;;;-145.45;100.00;62759.84;5245676;28;20025;-88
2021/12/11 11:25:09;;;;;;;16.38;3.83;;;;;;;-145.45;100.00;62759.84;5245753;28;20030;-88
2021/12/11 11:27:49;;;;;;;13.30;3.88;;;;;;;-145.45;100.00;62759.84;5245511;28;20029;-88
2021/12/11 11:30:27;;;;;;;17.45;3.92;;;;;;;-145.45;100.00;62759.84;5245440;28;20101;-89
2021/12/11 11:33:00;;;;;;;16.30;4.03;;;;;;;-145.45;100.00;62759.84;5263361;28;20137;-87
2021/12/11 11:35:33;;;;;;;12.70;4.10;;;;;;;-145.45;100.00;62759.84;5246027;28;20431;-87
2021/12/11 11:38:06;;;;;;;13.90;3.60;;;;;;;-145.45;100.00;62759.84;5242557;28;20066;-87
2021/12/11 11:40:37;;;;;;;17.10;3.10;;;;;;;-145.45;100.00;62759.84;5245624;28;20022;-87
2021/12/11 11:43:10;;;;;;;18.30;3.38;;;;;;;-145.45;100.00;62759.84;5245478;28;20018;-87
2021/12/11 11:45:42;;;;;;;9.18;3.13;;;;;;;-145.45;100.00;62759.84;5244280;28;20071;-86
2021/12/11 11:48:16;;;;;;;9.75;3.33;;;;;;;-145.45;100.00;62759.84;5222337;28;20065;-89
2021/12/11 11:50:50;;;;;;;9.77;3.00;;;;;;;-145.45;100.00;62759.84;5223870;28;20050;-86
2021/12/11 11:53:25;;;;;;;7.63;3.15;;;;;;;-145.45;100.00;62759.84;5208829;28;20383;-87
2021/12/11 11:56:01;;;;;;;11.65;2.80;;;;;;;-145.45;100.00;62759.84;5224650;28;20022;-88
2021/12/11 11:58:38;;;;;;;13.38;4.22;;;;;;;-145.45;100.00;62759.84;5225396;28;20030;-89
2021/12/11 12:01:21;;;;;;;15.23;3.35;;;;;;;-145.45;100.00;62759.84;5242522;28;20046;-89
2021/12/11 12:03:53;;;;;;;12.95;3.58;;;;;;;-145.45;100.00;62759.84;5226539;28;20490;-88
2021/12/11 12:06:32;;;;;;;16.17;3.90;;;;;;;-145.45;100.00;62759.84;5228211;28;20041;-89
2021/12/11 12:09:09;;;;;;;16.88;4.55;;;;;;;-145.45;100.00;62759.84;5255168;28;20025;-89